Time;durP1;ratioP1;P1;durP2;ratioP2;P2;SDS_P1;SDS_P2;PMS_P1;PMS_P2;Temp;Humidity;BMP_temperature;BMP_pressure;BME280_temperature;BME280_humidity;BME280_pressure;Samples;Min_cycle;Max_cycle;Signal;HPM_P1;HPM_P2
2020/12/01 00:01:56;;;;;;;22.60;10.65;;;2.40;99.90;;;;;;5089957;28;20107;-75
2020/12/01 00:04:22;;;;;;;22.98;13.82;;;2.50;99.90;;;;;;5094584;28;20020;-74
2020/12/01 00:06:48;;;;;;;21.35;12.50;;;2.60;99.90;;;;;;5093895;28;20078;-74
2020/12/01 00:09:14;;;;;;;20.23;12.48;;;2.60;99.90;;;;;;5094192;28;20024;-74
2020/12/01 00:11:40;;;;;;;20.25;13.18;;;2.50;99.90;;;;;;5094234;28;20374;-75
2020/12/01 00:14:06;;;;;;;24.33;13.35;;;2.50;99.90;;;;;;5094640;28;20024;-75
2020/12/01 00:16:32;;;;;;;22.08;12.00;;;2.40;99.90;;;;;;5094001;28;20032;-74
2020/12/01 00:18:59;;;;;;;21.67;12.50;;;2.50;99.90;;;;;;5094186;28;20374;-75
2020/12/01 00:21:25;;;;;;;21.38;11.80;;;2.50;99.90;;;;;;5094283;28;20012;-75
2020/12/01 00:23:51;;;;;;;24.75;13.15;;;2.40;99.90;;;;;;5094389;28;20596;-74
2020/12/01 00:26:17;;;;;;;20.48;11.02;;;2.30;99.90;;;;;;5094095;28;20055;-75
2020/12/01 00:28:44;;;;;;;23.17;13.52;;;2.20;99.90;;;;;;5093609;28;20019;-75
2020/12/01 00:31:10;;;;;;;21.83;12.55;;;2.00;99.90;;;;;;5093782;28;20032;-75
2020/12/01 00:33:36;;;;;;;22.30;13.27;;;1.90;99.90;;;;;;5094125;28;20020;-75
2020/12/01 00:36:02;;;;;;;22.17;13.25;;;2.00;99.90;;;;;;5094010;28;20123;-74
2020/12/01 00:38:28;;;;;;;24.90;14.27;;;2.00;99.90;;;;;;5093665;28;20477;-74
2020/12/01 00:40:54;;;;;;;21.15;12.13;;;2.10;99.90;;;;;;5092997;28;20038;-74
2020/12/01 00:43:20;;;;;;;23.75;12.00;;;2.20;99.90;;;;;;5094019;28;20085;-74
2020/12/01 00:45:46;;;;;;;19.10;11.43;;;2.20;99.90;;;;;;5093929;28;20028;-75
2020/12/01 00:48:13;;;;;;;23.30;13.65;;;2.30;99.90;;;;;;5092971;28;20035;-75
2020/12/01 00:50:39;;;;;;;20.17;11.85;;;2.30;99.90;;;;;;5092373;28;20024;-74
2020/12/01 00:53:05;;;;;;;23.20;12.27;;;2.40;99.90;;;;;;5093478;28;20052;-75
2020/12/01 00:55:31;;;;;;;20.60;11.63;;;2.40;99.90;;;;;;5092873;28;20055;-75
2020/12/01 00:57:57;;;;;;;18.60;11.38;;;2.30;99.90;;;;;;5093164;28;22055;-74
2020/12/01 01:00:27;;;;;;;23.45;13.43;;;2.30;99.90;;;;;;5090895;28;20141;-74
2020/12/01 01:02:52;;;;;;;25.33;13.48;;;2.30;99.90;;;;;;5075339;28;20020;-74
2020/12/01 01:05:19;;;;;;;22.75;11.75;;;2.30;99.90;;;;;;5070242;28;20052;-74
2020/12/01 01:07:45;;;;;;;20.73;11.68;;;2.20;99.90;;;;;;5071044;28;20088;-74
2020/12/01 01:10:16;;;;;;;23.27;12.05;;;2.20;99.90;;;;;;5086903;28;20119;-75
2020/12/01 01:12:42;;;;;;;23.55;12.25;;;2.10;99.90;;;;;;5090887;28;20103;-75
2020/12/01 01:15:08;;;;;;;23.25;11.93;;;2.10;99.90;;;;;;5091041;28;20555;-74
2020/12/01 01:17:33;;;;;;;24.42;13.27;;;2.10;99.90;;;;;;5090951;28;20039;-75
2020/12/01 01:19:59;;;;;;;19.85;11.40;;;2.10;99.90;;;;;;5091955;28;20024;-74
2020/12/01 01:22:25;;;;;;;20.90;11.13;;;2.00;99.90;;;;;;5092803;28;20462;-75
2020/12/01 01:24:50;;;;;;;20.20;10.02;;;2.00;99.90;;;;;;5092942;28;20024;-74
2020/12/01 01:27:16;;;;;;;18.60;10.88;;;2.00;99.90;;;;;;5092748;28;20424;-74
2020/12/01 01:29:42;;;;;;;19.15;12.02;;;1.90;99.90;;;;;;5092393;28;20031;-75
2020/12/01 01:32:07;;;;;;;26.63;12.73;;;1.90;99.90;;;;;;5092772;28;20109;-74
2020/12/01 01:34:33;;;;;;;19.13;10.65;;;1.90;99.90;;;;;;5092566;28;20032;-74
2020/12/01 01:36:59;;;;;;;17.85;10.02;;;1.60;99.90;;;;;;5092731;28;20090;-74
2020/12/01 01:39:24;;;;;;;21.33;10.77;;;1.60;99.90;;;;;;5092326;28;20128;-74
2020/12/01 01:41:50;;;;;;;18.98;11.40;;;1.60;99.90;;;;;;5092418;28;20028;-74
2020/12/01 01:44:20;;;;;;;22.08;11.52;;;1.50;99.90;;;;;;5092136;28;20402;-74
2020/12/01 01:46:52;;;;;;;20.80;10.85;;;1.50;99.90;;;;;;5090957;28;20074;-74
2020/12/01 01:49:22;;;;;;;20.25;11.20;;;1.50;99.90;;;;;;5092611;28;20085;-74
2020/12/01 01:51:53;;;;;;;17.90;10.88;;;1.50;99.90;;;;;;5092275;28;20502;-75
2020/12/01 01:54:21;;;;;;;20.58;10.70;;;1.60;99.90;;;;;;5092260;28;20103;-74
2020/12/01 01:56:54;;;;;;;19.25;10.95;;;1.60;99.90;;;;;;5092317;28;20047;-74
2020/12/01 01:59:20;;;;;;;21.55;10.55;;;1.60;99.90;;;;;;5092070;28;20024;-74
2020/12/01 02:01:46;;;;;;;18.90;11.32;;;1.70;99.90;;;;;;5091349;28;20422;-74
2020/12/01 02:04:14;;;;;;;18.52;10.18;;;1.70;99.90;;;;;;5091857;28;20077;-74
2020/12/01 02:06:50;;;;;;;20.17;10.73;;;1.80;99.90;;;;;;5092325;28;20040;-74
2020/12/01 02:09:27;;;;;;;23.33;12.93;;;1.70;99.90;;;;;;5091904;28;20088;-74
2020/12/01 02:11:56;;;;;;;19.38;11.45;;;1.60;99.90;;;;;;5091822;28;20028;-75
2020/12/01 02:14:27;;;;;;;18.45;9.90;;;1.50;99.90;;;;;;5092132;28;20119;-74
2020/12/01 02:16:58;;;;;;;17.27;10.50;;;1.40;99.90;;;;;;5071588;28;20093;-74
2020/12/01 02:19:27;;;;;;;22.38;11.38;;;1.40;99.90;;;;;;5089949;28;20469;-74
2020/12/01 02:21:56;;;;;;;21.27;11.48;;;1.50;99.90;;;;;;5092022;28;20478;-74
2020/12/01 02:24:27;;;;;;;17.45;10.20;;;1.60;99.90;;;;;;5092055;28;20024;-74
2020/12/01 02:26:55;;;;;;;20.95;11.30;;;1.60;99.90;;;;;;5091767;28;20028;-74
2020/12/01 02:29:24;;;;;;;19.38;11.90;;;1.50;99.90;;;;;;5091683;28;20539;-74
2020/12/01 02:31:50;;;;;;;21.83;11.02;;;1.50;99.90;;;;;;5089975;28;20093;-74
2020/12/01 02:34:18;;;;;;;23.98;12.15;;;1.50;99.90;;;;;;5091815;28;20486;-74
2020/12/01 02:36:45;;;;;;;23.45;12.68;;;1.60;99.90;;;;;;5091202;28;20115;-74
2020/12/01 02:39:11;;;;;;;18.30;10.88;;;1.60;99.90;;;;;;5091512;28;20028;-74
2020/12/01 02:41:38;;;;;;;19.73;10.65;;;1.50;99.90;;;;;;5091493;28;20505;-74
2020/12/01 02:44:05;;;;;;;20.52;11.40;;;1.50;99.90;;;;;;5091324;28;20028;-74
2020/12/01 02:46:36;;;;;;;19.25;10.48;;;1.50;99.90;;;;;;5091352;28;20027;-74
2020/12/01 02:49:06;;;;;;;19.55;10.82;;;1.40;99.90;;;;;;5091121;28;20032;-74
2020/12/01 02:51:33;;;;;;;19.02;11.43;;;1.30;99.90;;;;;;5091431;28;20035;-74
2020/12/01 02:53:59;;;;;;;25.30;12.20;;;1.30;99.90;;;;;;5091790;28;20367;-74
2020/12/01 02:56:25;;;;;;;27.48;13.50;;;1.40;99.90;;;;;;5089672;28;20123;-74
2020/12/01 02:58:51;;;;;;;20.52;11.45;;;1.40;99.90;;;;;;5091436;28;20099;-74
2020/12/01 03:01:17;;;;;;;20.17;11.63;;;1.40;99.90;;;;;;5086990;28;20036;-74
2020/12/01 03:03:44;;;;;;;22.10;11.52;;;1.50;99.90;;;;;;5070741;28;20035;-74
2020/12/01 03:06:13;;;;;;;22.88;12.88;;;1.60;99.90;;;;;;5069713;28;20028;-74
2020/12/01 03:08:40;;;;;;;21.70;11.65;;;1.60;99.90;;;;;;5088688;28;20028;-74
2020/12/01 03:11:07;;;;;;;20.67;11.85;;;1.70;99.90;;;;;;5088714;28;20032;-74
2020/12/01 03:13:33;;;;;;;21.88;12.38;;;1.60;99.90;;;;;;5092854;28;20077;-74
2020/12/01 03:16:04;;;;;;;20.30;12.52;;;1.70;99.90;;;;;;5093407;28;20036;-74
2020/12/01 03:18:30;;;;;;;18.85;11.18;;;1.60;99.90;;;;;;5092598;28;20726;-74
2020/12/01 03:20:55;;;;;;;19.05;11.05;;;1.60;99.90;;;;;;5094244;28;20028;-75
2020/12/01 03:23:21;;;;;;;17.77;10.68;;;1.60;99.90;;;;;;5095381;28;20028;-74
2020/12/01 03:25:47;;;;;;;24.30;12.65;;;1.50;99.90;;;;;;5095614;28;20411;-74
2020/12/01 03:28:12;;;;;;;19.13;10.82;;;1.50;99.90;;;;;;5095026;28;20040;-74
2020/12/01 03:30:38;;;;;;;23.27;11.38;;;1.50;99.90;;;;;;5094517;28;20099;-74
2020/12/01 03:33:04;;;;;;;18.58;11.75;;;1.50;99.90;;;;;;5095223;28;20020;-74
2020/12/01 03:35:29;;;;;;;21.25;11.80;;;1.50;99.90;;;;;;5094947;28;20028;-74
2020/12/01 03:37:56;;;;;;;22.95;12.80;;;1.50;99.90;;;;;;5095036;28;20016;-74
2020/12/01 03:40:23;;;;;;;21.85;12.43;;;1.50;99.90;;;;;;5095344;28;20098;-74
2020/12/01 03:42:49;;;;;;;23.67;12.32;;;1.50;99.90;;;;;;5094341;28;20394;-74
2020/12/01 03:45:14;;;;;;;20.58;11.05;;;1.50;99.90;;;;;;5094586;28;20027;-74
2020/12/01 03:47:40;;;;;;;16.73;10.45;;;1.50;99.90;;;;;;5094543;28;20386;-74
2020/12/01 03:50:07;;;;;;;15.38;8.55;;;1.60;99.90;;;;;;5094317;28;20095;-74
2020/12/01 03:52:32;;;;;;;21.20;11.25;;;1.70;99.90;;;;;;5094248;28;20514;-74
2020/12/01 03:54:58;;;;;;;21.77;9.65;;;1.70;99.90;;;;;;5094525;28;20037;-74
2020/12/01 03:57:24;;;;;;;14.25;7.55;;;1.70;99.90;;;;;;5094730;28;20051;-75
2020/12/01 03:59:49;;;;;;;17.50;9.25;;;1.70;99.90;;;;;;5094245;28;20490;-75
2020/12/01 04:02:15;;;;;;;13.57;8.65;;;1.70;99.90;;;;;;5092658;28;20039;-74
2020/12/01 04:04:41;;;;;;;19.50;9.75;;;1.60;99.90;;;;;;5083198;28;20081;-75
2020/12/01 04:07:06;;;;;;;20.67;10.32;;;1.60;99.90;;;;;;5087544;28;20024;-75
2020/12/01 04:09:32;;;;;;;21.55;10.82;;;1.50;99.90;;;;;;5086363;28;20089;-75
2020/12/01 04:11:58;;;;;;;19.48;11.10;;;1.40;99.90;;;;;;5086732;28;20507;-75
2020/12/01 04:14:23;;;;;;;21.05;11.85;;;1.40;99.90;;;;;;5086768;28;20550;-75
2020/12/01 04:16:49;;;;;;;18.33;10.00;;;1.50;99.90;;;;;;5086774;28;20074;-75
2020/12/01 04:19:15;;;;;;;18.23;10.57;;;1.40;99.90;;;;;;5084778;28;20024;-75
2020/12/01 04:21:40;;;;;;;20.27;9.93;;;1.30;99.90;;;;;;5086803;28;20089;-74
2020/12/01 04:24:06;;;;;;;23.17;10.43;;;1.30;99.90;;;;;;5085082;28;20024;-75
2020/12/01 04:26:32;;;;;;;21.63;10.23;;;1.20;99.90;;;;;;5086231;28;20038;-74
2020/12/01 04:28:58;;;;;;;16.73;9.45;;;1.10;99.90;;;;;;5086293;28;20032;-74
2020/12/01 04:31:24;;;;;;;17.50;9.88;;;1.10;99.90;;;;;;5086264;28;20070;-74
2020/12/01 04:33:49;;;;;;;14.20;8.88;;;1.10;99.90;;;;;;5085644;28;20036;-75
2020/12/01 04:36:15;;;;;;;19.92;10.15;;;1.10;99.90;;;;;;5086129;28;20121;-75
2020/12/01 04:38:41;;;;;;;16.52;9.98;;;1.00;99.90;;;;;;5086861;28;20023;-75
2020/12/01 04:41:11;;;;;;;14.35;9.20;;;0.80;99.90;;;;;;5086772;28;20423;-75
2020/12/01 04:43:55;;;;;;;19.83;10.38;;;0.80;99.90;;;;;;5086352;28;20051;-75
2020/12/01 04:46:26;;;;;;;16.83;9.10;;;0.80;99.90;;;;;;5086173;28;20035;-75
2020/12/01 04:49:21;;;;;;;16.65;9.13;;;0.80;99.90;;;;;;5086044;28;20016;-75
2020/12/01 04:52:11;;;;;;;29.55;14.68;;;0.90;99.90;;;;;;5086305;28;20035;-74
2020/12/01 04:54:43;;;;;;;24.75;12.40;;;0.90;99.90;;;;;;5085915;28;20024;-75
2020/12/01 04:57:37;;;;;;;17.05;8.50;;;1.10;99.90;;;;;;5085692;28;20640;-75
2020/12/01 05:00:27;;;;;;;19.70;9.55;;;1.00;99.90;;;;;;5086482;28;20922;-75
2020/12/01 05:03:25;;;;;;;16.83;8.98;;;0.90;99.90;;;;;;5074469;28;20098;-75
2020/12/01 05:06:38;;;;;;;19.38;9.85;;;0.90;99.90;;;;;;5083268;28;20387;-74
2020/12/01 05:09:20;;;;;;;21.40;9.75;;;0.90;99.90;;;;;;5084565;28;20081;-75
2020/12/01 05:11:58;;;;;;;23.23;10.65;;;0.50;99.90;;;;;;5084156;28;20097;-75
2020/12/01 05:14:59;;;;;;;18.95;11.10;;;0.60;99.90;;;;;;5084226;28;20456;-75
2020/12/01 05:18:01;;;;;;;18.48;9.85;;;0.50;99.90;;;;;;5083556;28;20038;-75
2020/12/01 05:20:27;;;;;;;18.42;10.85;;;0.60;99.90;;;;;;5083916;28;20024;-75
2020/12/01 05:22:57;;;;;;;13.60;8.48;;;0.70;99.90;;;;;;5085337;28;20024;-75
2020/12/01 05:25:28;;;;;;;17.73;10.30;;;0.60;99.90;;;;;;5085484;28;20433;-74
2020/12/01 05:28:17;;;;;;;17.92;9.98;;;0.70;99.90;;;;;;5084801;28;20035;-75
2020/12/01 05:30:43;;;;;;;21.95;12.05;;;0.60;99.90;;;;;;5085284;28;20085;-75
2020/12/01 05:33:28;;;;;;;20.50;11.63;;;0.60;99.90;;;;;;5085490;28;20386;-75
2020/12/01 05:36:22;;;;;;;21.42;10.35;;;0.50;99.90;;;;;;5084822;28;20039;-76
2020/12/01 05:39:13;;;;;;;20.13;10.95;;;0.60;99.90;;;;;;5084639;28;20038;-75
2020/12/01 05:41:40;;;;;;;26.10;10.65;;;0.50;99.90;;;;;;5085099;28;20099;-75
2020/12/01 05:44:28;;;;;;;18.20;9.95;;;0.50;99.90;;;;;;5085587;28;20494;-75
2020/12/01 05:47:07;;;;;;;22.73;12.13;;;0.50;99.90;;;;;;5085383;28;20492;-75
2020/12/01 05:49:49;;;;;;;18.85;10.48;;;0.50;99.90;;;;;;5065160;28;20036;-75
2020/12/01 05:52:24;;;;;;;21.17;11.75;;;0.60;99.90;;;;;;5064663;28;20024;-75
2020/12/01 05:55:13;;;;;;;20.50;11.00;;;0.60;99.90;;;;;;5064975;28;20035;-75
2020/12/01 05:57:40;;;;;;;15.80;9.45;;;0.30;99.90;;;;;;5064561;28;20529;-75
2020/12/01 06:00:15;;;;;;;20.70;10.10;;;0.40;99.90;;;;;;5064742;28;20046;-75
2020/12/01 06:02:49;;;;;;;19.27;10.32;;;0.50;99.90;;;;;;5064933;28;20029;-75
2020/12/01 06:05:20;;;;;;;19.70;11.48;;;0.50;99.90;;;;;;5064647;28;20035;-75
2020/12/01 06:07:49;;;;;;;20.63;10.68;;;0.50;99.90;;;;;;5084302;28;20033;-76
2020/12/01 06:10:23;;;;;;;17.67;10.23;;;0.60;99.90;;;;;;5084803;28;20028;-76
2020/12/01 06:12:49;;;;;;;;;;;0.70;99.90;;;;;;5089836;28;20516;-74
2020/12/01 06:15:18;;;;;;;16.38;8.70;;;0.60;99.90;;;;;;5085024;28;19924;-76
2020/12/01 06:17:58;;;;;;;20.05;9.70;;;0.60;99.90;;;;;;5083859;28;20032;-75
2020/12/01 06:20:50;;;;;;;21.30;12.40;;;0.60;99.90;;;;;;5089183;28;20603;-73
2020/12/01 06:23:57;;;;;;;16.08;9.65;;;0.70;99.90;;;;;;5078872;28;20050;-74
2020/12/01 06:26:51;;;;;;;17.35;9.32;;;0.60;99.90;;;;;;5083843;28;20107;-73
2020/12/01 06:29:31;;;;;;;21.85;11.75;;;0.40;99.90;;;;;;5083878;28;20024;-74
2020/12/01 06:32:20;;;;;;;17.10;10.23;;;0.30;99.90;;;;;;5083693;28;20068;-74
2020/12/01 06:35:07;;;;;;;18.38;10.40;;;0.30;99.90;;;;;;5074494;28;20042;-74
2020/12/01 06:37:52;;;;;;;21.25;11.50;;;0.50;99.90;;;;;;5083809;28;20035;-74
2020/12/01 06:40:24;;;;;;;17.63;9.35;;;0.60;99.90;;;;;;5083125;28;20107;-74
2020/12/01 06:42:53;;;;;;;17.75;10.10;;;0.50;99.90;;;;;;5082682;28;20623;-74
2020/12/01 06:45:24;;;;;;;16.83;9.77;;;0.20;99.90;;;;;;5079465;28;20123;-75
2020/12/01 06:47:53;;;;;;;17.58;8.68;;;0.20;99.90;;;;;;5079966;28;20111;-74
2020/12/01 06:50:21;;;;;;;15.07;9.25;;;0.20;99.90;;;;;;5083400;28;20391;-74
2020/12/01 06:52:59;;;;;;;14.88;8.80;;;0.40;99.90;;;;;;5082858;28;20024;-74
2020/12/01 06:55:57;;;;;;;13.77;8.20;;;0.50;99.90;;;;;;5082260;28;20277;-74
2020/12/01 06:58:26;;;;;;;18.88;9.00;;;0.60;99.90;;;;;;5083324;28;20059;-74
2020/12/01 07:01:08;;;;;;;16.70;9.05;;;0.70;99.90;;;;;;5082954;28;20036;-74
2020/12/01 07:03:34;;;;;;;19.20;8.77;;;0.40;99.90;;;;;;5081894;28;20043;-75
2020/12/01 07:06:16;;;;;;;14.18;7.72;;;0.40;99.90;;;;;;5083587;28;20111;-74
2020/12/01 07:08:42;;;;;;;15.05;9.10;;;0.50;99.90;;;;;;5083249;28;20359;-74
2020/12/01 07:11:29;;;;;;;16.23;8.15;;;0.50;99.90;;;;;;5082981;28;20039;-74
2020/12/01 07:14:12;;;;;;;16.48;8.50;;;0.60;99.90;;;;;;5082623;28;20644;-74
2020/12/01 07:16:44;;;;;;;15.18;8.18;;;0.50;99.90;;;;;;5082601;28;20046;-74
2020/12/01 07:19:20;;;;;;;16.98;7.47;;;0.50;99.90;;;;;;5082633;28;20024;-74
2020/12/01 07:22:20;;;;;;;15.32;8.27;;;0.60;99.90;;;;;;5082586;28;20362;-73
2020/12/01 07:25:03;;;;;;;16.88;8.30;;;0.70;99.90;;;;;;5057842;28;20121;-74
2020/12/01 07:27:41;;;;;;;16.35;8.02;;;0.90;99.90;;;;;;5082744;28;20092;-74
2020/12/01 07:30:16;;;;;;;17.50;10.32;;;0.90;99.90;;;;;;5081831;28;20028;-74
2020/12/01 07:33:05;;;;;;;12.32;6.93;;;0.90;99.90;;;;;;5082485;28;20024;-74
2020/12/01 07:35:42;;;;;;;46.53;24.73;;;0.90;99.90;;;;;;5082827;28;20085;-74
2020/12/01 07:38:20;;;;;;;46.38;24.52;;;0.70;99.90;;;;;;5082867;28;20035;-74
2020/12/01 07:40:54;;;;;;;43.67;22.67;;;0.50;99.90;;;;;;5082194;28;20034;-75
2020/12/01 07:43:21;;;;;;;20.75;11.18;;;0.60;99.90;;;;;;5082884;28;20025;-74
2020/12/01 07:45:49;;;;;;;18.23;9.35;;;0.70;99.90;;;;;;5082718;28;20036;-74
2020/12/01 07:48:20;;;;;;;16.00;8.40;;;0.70;99.90;;;;;;5080621;28;20053;-73
2020/12/01 07:50:46;;;;;;;13.30;7.20;;;0.80;99.90;;;;;;5080721;28;20020;-76
2020/12/01 07:53:20;;;;;;;15.50;8.65;;;0.90;99.90;;;;;;5081266;28;20035;-76
2020/12/01 07:55:55;;;;;;;16.42;8.88;;;0.90;99.90;;;;;;5080808;28;20052;-76
2020/12/01 07:58:24;;;;;;;14.52;8.15;;;0.90;99.90;;;;;;5082002;28;20089;-76
2020/12/01 08:01:12;;;;;;;16.13;7.35;;;1.00;99.90;;;;;;5085357;28;20052;-75
2020/12/01 08:03:38;;;;;;;18.67;8.38;;;1.20;99.90;;;;;;5087203;28;20028;-74
2020/12/01 08:06:11;;;;;;;14.63;7.60;;;0.70;99.90;;;;;;5087023;28;20030;-75
2020/12/01 08:08:40;;;;;;;17.00;8.40;;;0.70;99.90;;;;;;5086926;28;20028;-77
2020/12/01 08:11:09;;;;;;;17.98;9.23;;;0.80;99.90;;;;;;5086699;28;20043;-75
2020/12/01 08:13:37;;;;;;;14.55;7.90;;;0.80;99.90;;;;;;5087258;28;20024;-75
2020/12/01 08:16:18;;;;;;;13.95;8.13;;;0.70;99.90;;;;;;5087028;28;20032;-73
2020/12/01 08:18:45;;;;;;;11.82;7.70;;;0.80;99.90;;;;;;5087040;28;20025;-73
2020/12/01 08:21:14;;;;;;;14.95;8.45;;;0.60;99.90;;;;;;5086474;28;20644;-74
2020/12/01 08:23:43;;;;;;;12.82;8.25;;;0.80;99.90;;;;;;5086896;28;20036;-73
2020/12/01 08:26:17;;;;;;;18.65;8.27;;;1.00;99.90;;;;;;5086850;28;20103;-73
2020/12/01 08:28:48;;;;;;;13.55;7.85;;;1.00;99.90;;;;;;5086285;28;20509;-77
2020/12/01 08:31:35;;;;;;;13.27;8.02;;;1.10;99.90;;;;;;5086425;28;20031;-76
2020/12/01 08:34:08;;;;;;;12.02;6.75;;;1.20;99.90;;;;;;5080547;28;20027;-76
2020/12/01 08:36:44;;;;;;;13.57;7.75;;;1.20;99.90;;;;;;5086559;28;20032;-76
2020/12/01 08:39:50;;;;;;;15.75;7.90;;;1.30;99.90;;;;;;5086582;28;20406;-76
2020/12/01 08:42:43;;;;;;;12.65;7.38;;;1.40;99.90;;;;;;5052511;28;20036;-77
2020/12/01 08:45:09;;;;;;;12.55;7.65;;;1.40;99.90;;;;;;5064775;28;20037;-78
2020/12/01 08:47:36;;;;;;;14.02;8.05;;;1.30;99.90;;;;;;5066182;28;20386;-75
2020/12/01 08:50:34;;;;;;;13.85;7.10;;;1.20;99.90;;;;;;5066803;28;20020;-76
2020/12/01 08:53:12;;;;;;;16.02;7.45;;;1.20;99.80;;;;;;5077845;28;20127;-76
2020/12/01 08:55:51;;;;;;;16.13;7.70;;;1.40;99.90;;;;;;5085501;28;20640;-74
2020/12/01 08:58:31;;;;;;;13.07;6.82;;;1.50;99.90;;;;;;5086492;28;20036;-77
2020/12/01 09:01:17;;;;;;;13.27;7.18;;;1.50;99.50;;;;;;5086346;28;20089;-77
2020/12/01 09:03:58;;;;;;;16.20;7.97;;;1.40;99.70;;;;;;5085964;28;20021;-76
2020/12/01 09:06:31;;;;;;;16.45;7.65;;;1.50;99.90;;;;;;5063154;28;20482;-76
2020/12/01 09:09:05;;;;;;;15.10;9.00;;;1.40;99.90;;;;;;5066597;28;20082;-79
2020/12/01 09:11:47;;;;;;;17.50;8.20;;;1.50;99.90;;;;;;5065192;28;20033;-77
2020/12/01 09:14:22;;;;;;;16.80;8.48;;;1.50;99.70;;;;;;5067015;28;20394;-75
2020/12/01 09:17:09;;;;;;;14.05;7.40;;;1.60;99.80;;;;;;5085886;28;20035;-74
2020/12/01 09:22:12;;;;;;;18.67;8.02;;;1.80;99.20;;;;;;5086457;28;20036;-74
2020/12/01 09:24:38;;;;;;;17.65;8.40;;;1.90;98.90;;;;;;5085564;28;20473;-73
2020/12/01 09:27:07;;;;;;;14.88;8.98;;;2.00;98.80;;;;;;5085797;28;20027;-73
2020/12/01 09:29:34;;;;;;;16.25;9.18;;;2.10;98.90;;;;;;5085150;28;20086;-75
2020/12/01 09:32:00;;;;;;;22.60;12.63;;;2.10;99.00;;;;;;5085796;28;20028;-74
2020/12/01 09:34:31;;;;;;;17.77;8.98;;;2.20;98.90;;;;;;5085723;28;20413;-74
2020/12/01 09:36:58;;;;;;;20.45;10.70;;;2.10;99.10;;;;;;5084963;28;20066;-74
2020/12/01 09:39:24;;;;;;;13.20;7.55;;;2.20;99.00;;;;;;5085720;28;20036;-74
2020/12/01 09:42:01;;;;;;;16.52;6.60;;;2.10;97.90;;;;;;5085019;28;20024;-73
2020/12/01 09:44:43;;;;;;;19.23;8.20;;;2.10;98.00;;;;;;5083870;28;20025;-76
2020/12/01 09:47:15;;;;;;;16.08;7.38;;;2.20;98.00;;;;;;5068275;28;20024;-75
2020/12/01 09:49:41;;;;;;;19.67;7.80;;;2.30;97.60;;;;;;5084264;28;20111;-75
2020/12/01 09:52:14;;;;;;;14.85;8.55;;;2.30;97.70;;;;;;5084485;28;20403;-75
2020/12/01 09:54:55;;;;;;;15.50;7.63;;;2.30;97.90;;;;;;5084970;28;20024;-75
2020/12/01 10:12:58;;;;;;;17.42;7.22;;;2.40;96.90;;;;;;5063838;28;20514;-74
2020/12/01 10:26:10;;;;;;;16.88;8.98;;;2.40;97.50;;;;;;5078696;28;20047;-74
2020/12/01 10:34:27;;;;;;;13.93;7.97;;;2.80;96.70;;;;;;5052324;28;20040;-75
2020/12/01 10:36:54;;;;;;;15.40;7.93;;;2.80;96.80;;;;;;5083285;28;20024;-75
2020/12/01 10:39:20;;;;;;;15.52;7.35;;;2.70;97.00;;;;;;5083840;28;20028;-74
2020/12/01 10:41:47;;;;;;;14.27;7.70;;;2.70;96.80;;;;;;5084299;28;20115;-74
2020/12/01 10:44:13;;;;;;;13.18;8.07;;;2.80;96.00;;;;;;5084124;28;20051;-78
2020/12/01 10:46:39;;;;;;;14.63;7.07;;;2.90;96.10;;;;;;5070526;28;20024;-77
2020/12/01 10:49:05;;;;;;;17.40;9.63;;;2.90;96.00;;;;;;5064105;28;20683;-75
2020/12/01 10:51:32;;;;;;;36.88;22.83;;;2.80;95.80;;;;;;5062520;28;20547;-76
2020/12/01 10:53:58;;;;;;;12.43;6.55;;;3.00;96.30;;;;;;5063954;28;20072;-76
2020/12/01 10:56:24;;;;;;;14.50;6.72;;;2.90;95.60;;;;;;5073587;28;20048;-76
2020/12/01 10:58:50;;;;;;;11.63;6.72;;;3.00;95.80;;;;;;5083630;28;20094;-76
2020/12/01 11:01:15;;;;;;;15.82;9.15;;;3.00;95.40;;;;;;5081324;28;20051;-76
2020/12/01 11:03:42;;;;;;;13.50;9.82;;;3.00;95.80;;;;;;5082572;28;20020;-76
2020/12/01 11:06:08;;;;;;;17.27;11.52;;;3.30;95.90;;;;;;5081861;28;20020;-76
2020/12/01 11:08:33;;;;;;;25.20;17.17;;;3.30;94.80;;;;;;5081783;28;20043;-76
2020/12/01 11:10:59;;;;;;;13.63;8.38;;;3.30;94.90;;;;;;5082449;28;20480;-76
2020/12/01 11:13:25;;;;;;;19.35;7.10;;;3.30;94.90;;;;;;5082530;28;20028;-76
2020/12/01 11:15:50;;;;;;;13.23;6.45;;;3.20;94.80;;;;;;5081674;28;20024;-75
2020/12/01 11:18:16;;;;;;;11.68;7.32;;;3.00;95.30;;;;;;5070269;28;20103;-76
2020/12/01 11:20:42;;;;;;;14.35;7.47;;;2.90;95.10;;;;;;5061755;28;20089;-75
2020/12/01 11:23:08;;;;;;;12.63;7.40;;;3.00;95.90;;;;;;5062828;28;20483;-76
2020/12/01 11:25:33;;;;;;;18.40;7.43;;;2.90;95.40;;;;;;5063586;28;20035;-75
2020/12/01 11:27:59;;;;;;;12.93;7.43;;;3.00;95.60;;;;;;5075851;28;20046;-76
2020/12/01 11:30:26;;;;;;;14.43;7.03;;;3.10;95.90;;;;;;5083388;28;20614;-76
2020/12/01 11:32:52;;;;;;;20.55;7.97;;;3.00;95.80;;;;;;5083849;28;20038;-76
2020/12/01 11:35:21;;;;;;;14.27;7.82;;;3.00;96.00;;;;;;5087589;28;20062;-76
2020/12/01 11:37:47;;;;;;;15.73;8.20;;;3.10;95.60;;;;;;5085807;28;20035;-76
2020/12/01 11:40:13;;;;;;;14.10;7.22;;;3.10;96.30;;;;;;5087434;28;20343;-75
2020/12/01 11:42:39;;;;;;;14.43;8.07;;;3.10;95.50;;;;;;5087280;28;20474;-76
2020/12/01 11:45:06;;;;;;;15.20;6.97;;;3.10;96.00;;;;;;5087477;28;20024;-76
2020/12/01 11:47:31;;;;;;;13.10;7.75;;;3.20;96.00;;;;;;5086905;28;20032;-76
2020/12/01 11:49:57;;;;;;;12.82;7.20;;;3.20;95.90;;;;;;5086889;28;20448;-76
2020/12/01 11:52:22;;;;;;;20.38;11.00;;;3.10;95.90;;;;;;5086699;28;20095;-75
2020/12/01 11:54:48;;;;;;;19.27;9.07;;;3.10;95.70;;;;;;5087531;28;20553;-76
2020/12/01 11:57:14;;;;;;;17.50;8.65;;;3.10;95.80;;;;;;5087189;28;20055;-75
2020/12/01 11:59:39;;;;;;;15.60;7.80;;;3.30;95.90;;;;;;5086597;28;20028;-75
2020/12/01 12:02:05;;;;;;;22.23;8.52;;;3.20;95.40;;;;;;5086854;28;20103;-76
2020/12/01 12:04:31;;;;;;;17.83;7.88;;;3.20;95.50;;;;;;5084875;28;20588;-75
2020/12/01 12:06:56;;;;;;;18.88;8.77;;;3.40;96.10;;;;;;5087160;28;20107;-75
2020/12/01 12:09:22;;;;;;;20.80;8.43;;;3.30;95.70;;;;;;5086886;28;20028;-75
2020/12/01 12:11:48;;;;;;;18.73;7.78;;;3.30;95.80;;;;;;5086790;28;20031;-75
2020/12/01 12:14:20;;;;;;;15.85;7.82;;;3.40;95.40;;;;;;5086313;28;20024;-75
2020/12/01 12:16:48;;;;;;;13.90;7.03;;;3.40;96.00;;;;;;5073524;28;20032;-75
2020/12/01 12:19:14;;;;;;;15.40;9.23;;;3.40;95.60;;;;;;5087070;28;20066;-75
2020/12/01 12:21:43;;;;;;;17.17;8.43;;;3.50;95.40;;;;;;5086549;28;20024;-75
2020/12/01 12:24:09;;;;;;;18.10;8.82;;;3.60;95.30;;;;;;5086704;28;20047;-75
2020/12/01 12:26:35;;;;;;;16.15;10.20;;;3.60;94.90;;;;;;5086130;28;20028;-75
2020/12/01 12:29:01;;;;;;;12.20;7.55;;;3.60;94.80;;;;;;5086741;28;20529;-75
2020/12/01 12:31:27;;;;;;;12.98;6.93;;;3.60;95.00;;;;;;5086099;28;20040;-75
2020/12/01 12:33:53;;;;;;;10.82;6.32;;;3.60;95.10;;;;;;5085769;28;20032;-75
2020/12/01 12:36:19;;;;;;;14.57;7.15;;;3.40;94.60;;;;;;5085557;28;20379;-74
2020/12/01 12:38:45;;;;;;;14.30;6.30;;;3.30;94.30;;;;;;5084965;28;20063;-74
2020/12/01 12:41:11;;;;;;;14.75;7.05;;;3.30;94.50;;;;;;5085025;28;20107;-74
2020/12/01 12:43:37;;;;;;;11.68;6.78;;;3.20;94.70;;;;;;5086225;28;20398;-75
2020/12/01 12:46:03;;;;;;;9.60;6.03;;;3.20;95.00;;;;;;5085698;28;20039;-74
2020/12/01 12:48:29;;;;;;;17.02;7.18;;;3.20;94.00;;;;;;5086012;28;20024;-76
2020/12/01 12:50:55;;;;;;;14.95;7.30;;;3.20;94.70;;;;;;5086494;28;20024;-74
2020/12/01 12:53:21;;;;;;;15.68;7.28;;;3.10;94.90;;;;;;5085804;28;20066;-75
2020/12/01 12:55:47;;;;;;;11.23;6.70;;;3.10;95.20;;;;;;5085660;28;20067;-75
2020/12/01 12:58:13;;;;;;;14.70;7.47;;;3.20;95.30;;;;;;5085634;28;20043;-75
2020/12/01 13:00:44;;;;;;;15.50;7.60;;;3.20;95.20;;;;;;5085985;28;20024;-75
2020/12/01 13:03:10;;;;;;;14.68;7.53;;;3.30;94.90;;;;;;5086073;28;20034;-75
2020/12/01 13:05:36;;;;;;;16.67;6.95;;;3.30;94.70;;;;;;5086175;28;20024;-75
2020/12/01 13:08:05;;;;;;;16.88;8.13;;;3.20;95.10;;;;;;5085697;28;20101;-75
2020/12/01 13:10:37;;;;;;;13.85;7.35;;;3.30;95.30;;;;;;5084041;28;20084;-75
2020/12/01 13:13:03;;;;;;;15.00;7.68;;;3.30;95.40;;;;;;5085697;28;20053;-75
2020/12/01 13:15:29;;;;;;;17.95;11.93;;;3.30;95.30;;;;;;5085927;28;20033;-75
2020/12/01 13:17:55;;;;;;;29.13;15.93;;;3.30;95.40;;;;;;5083237;28;20029;-75
2020/12/01 13:20:25;;;;;;;16.08;9.18;;;3.40;95.40;;;;;;5064825;28;20051;-75
2020/12/01 13:22:51;;;;;;;19.27;7.55;;;3.50;95.30;;;;;;5079156;28;20160;-75
2020/12/01 13:25:18;;;;;;;14.50;7.82;;;3.30;94.90;;;;;;5083967;28;20020;-75
2020/12/01 13:27:44;;;;;;;17.23;8.60;;;3.20;94.90;;;;;;5083674;28;20024;-75
2020/12/01 13:30:12;;;;;;;13.48;7.82;;;3.10;95.00;;;;;;5084378;28;20128;-76
2020/12/01 13:32:45;;;;;;;15.70;8.65;;;3.10;95.10;;;;;;5083165;28;20032;-75
2020/12/01 13:35:16;;;;;;;17.25;9.05;;;3.20;95.20;;;;;;5063636;28;20021;-75
2020/12/01 13:37:43;;;;;;;15.95;8.13;;;3.20;95.50;;;;;;5064269;28;20079;-75